Latest Coastal Weather Observations for Cape Otway

IDT60701

Issued at 1:12 pm EDT Monday 22 December 2014 (issued every 10 minutes, with the page automatically refreshed every 10 minutes)

About coastal observations | Map of coastal stations | Coastal observations for TAS | Marine services | Other Formats
Station Details ID: 090015 Name: CAPE OTWAY LIGHTHOUSE Lat: -38.86 Lon: 143.51 Height: 82.0 m
Data from the previous 72 hours. | See also: Recent months at Cape Otway
Date/Time
EDT
Temp

°C
Wind Pressure Rain
since 9am
mm
Weather Cloud Vis
km
Sea
Height
m
Swell
Dir
 
Speed
knots
Gust
knots
hPa Trend Height
m
Period
s
Dir
22/01:03pm 16.6 E 19 29 1010.6 - 0.0 - - - - - - -
22/01:02pm 16.6 E 19 29 1010.7 - 0.0 - - - - - - -
22/01:00pm 16.5 E 20 29 1010.6 - 0.0 - - - - - - -
22/12:40pm 16.4 E 18 29 1011.0 - 0.0 - - - - - - -
22/12:30pm 16.6 E 16 24 1011.4 - 0.0 - - - - - - -
22/12:22pm 17.0 E 15 26 1011.8 - 0.0 - - - - - - -
22/12:21pm 16.9 E 15 26 1011.8 - 0.0 - - - - - - -
22/12:00pm 17.2 E 13 21 1012.5 - 0.0 - - - - - - -
22/11:30am 18.0 E 13 20 1013.4 - 0.0 - - - - - - -
22/11:00am 18.0 E 9 14 1013.9 - 0.0 - - - - - - -
22/10:30am 17.7 E 10 15 1014.1 - 0.0 - - - - - - -
22/10:00am 16.7 E 11 19 1013.9 - 0.0 - - - - - - -
22/09:30am 16.4 E 9 15 1014.4 - 0.0 - - - - - - -
22/09:00am 16.0 E 9 15 1013.5 - 0.0 - - - - - - -
22/08:30am 16.0 E 9 17 1014.0 - 0.0 - - - - - - -
22/08:00am 15.7 E 12 17 1013.4 - 0.0 - - - - - - -
22/07:30am 15.5 E 11 17 1013.3 - 0.0 - - - - - - -
22/07:00am 15.3 E 14 19 1012.6 - 0.0 - - - - - - -
22/06:30am 15.2 E 14 20 1012.5 - 0.0 - - - - - - -
22/06:00am 15.2 E 12 18 1012.4 - 0.0 - - - - - - -
22/05:30am 15.3 E 10 15 1012.6 - 0.0 - - - - - - -
22/05:00am 15.3 E 8 14 1013.0 - 0.0 - - - - - - -
22/04:30am 15.5 E 10 19 1013.1 - 0.0 - - - - - - -
22/04:00am 15.5 E 10 17 1013.4 - 0.0 - - - - - - -
22/03:30am 15.6 E 8 13 1013.4 - 0.0 - - - - - - -
22/03:00am 15.6 E 9 17 1013.5 - 0.0 - - - - - - -
22/02:30am 15.7 E 12 17 1014.1 - 0.0 - - - - - - -
22/02:00am 15.7 E 11 16 1014.3 - 0.0 - - - - - - -
22/01:30am 15.6 E 11 17 1014.4 - 0.0 - - - - - - -
22/01:00am 15.7 E 12 17 1014.6 - 0.0 - - - - - - -
22/12:30am 15.7 E 6 9 1014.8 - 0.0 - - - - - - -
22/12:00am 15.9 E 6 8 1014.8 - 0.0 - - - - - - -
 
Date/Time
EDT
Temp

°C
Wind Pressure Rain
since 9am
mm
Weather Cloud Vis
km
Sea
Height
m
Swell
Dir
 
Speed
knots
Gust
knots
hPa Trend Height
m
Period
s
Dir
21/11:30pm 15.9 ESE 8 10 1015.1 - 0.0 - - - - - - -
21/11:00pm 15.7 ESE 8 11 1015.2 - 0.0 - - - - - - -
21/10:30pm 15.6 ESE 10 12 1015.2 - 0.0 - - - - - - -
21/10:00pm 16.0 SSE 5 9 1015.4 - 0.0 - - - - - - -
21/09:30pm 15.7 SSE 4 9 1015.2 - 0.0 - - - - - - -
21/09:00pm 15.9 SE 7 12 1014.8 - 0.0 - - - - - - -
21/08:30pm 16.4 SSW 4 8 1015.0 - 0.0 - - - - - - -
21/08:00pm 16.8 S 4 7 1014.7 - 0.0 - - - - - - -
21/07:30pm 17.1 SSE 5 9 1014.3 - 0.0 - - - - - - -
21/07:00pm 17.7 S 3 7 1013.9 - 0.0 - - - - - - -
21/06:30pm 19.4 SE 5 7 1013.3 - 0.0 - - - - - - -
21/06:00pm 18.7 E 5 9 1012.8 - 0.0 - - - - - - -
21/05:30pm 19.2 E 7 10 1012.8 - 0.0 - - - - - - -
21/05:00pm 19.2 E 8 11 1012.7 - 0.0 - - - - - - -
21/04:30pm 18.7 E 7 9 1012.9 - 0.0 - - - - - - -
21/04:00pm 18.2 E 8 11 1013.0 - 0.0 - - - - - - -
21/03:30pm 18.8 E 7 10 1013.2 - 0.0 - - - - - - -
21/03:00pm 18.9 E 9 14 1013.4 - 0.0 - - - - - - -
21/02:30pm 19.5 E 11 15 1014.1 - 0.0 - - - - - - -
21/02:00pm 19.8 E 11 14 1014.4 - 0.0 - - - - - - -
21/01:30pm 18.3 E 14 16 1014.5 - 0.0 - - - - - - -
21/01:00pm 18.5 ESE 12 15 1014.7 - 0.0 - - - - - - -
21/12:30pm 19.6 E 11 13 1014.7 - 0.0 - - - - - - -
21/12:00pm 19.7 E 8 12 1014.2 - 0.0 - - - - - - -
21/11:30am 20.2 E 7 11 1014.1 - 0.0 - - - - - - -
21/11:00am 19.8 E 7 11 1014.2 - 0.0 - - - - - - -
21/10:30am 19.1 E 7 11 1014.0 - 0.0 - - - - - - -
21/10:00am 19.3 E 7 11 1014.1 - 0.0 - - - - - - -
21/09:30am 18.9 E 8 10 1014.3 - 0.0 - - - - - - -
21/09:00am 17.7 E 7 9 1014.2 - 0.0 - - - - - - -
21/08:30am 17.1 E 6 10 1014.2 - 0.0 - - - - - - -
21/08:00am 16.3 NE 6 9 1014.2 - 0.0 - - - - - - -
21/07:30am 14.9 NE 8 11 1014.2 - 0.0 - - - - - - -
21/07:00am 13.9 ENE 9 12 1013.7 - 0.0 - - - - - - -
21/06:30am 13.3 ENE 8 10 1014.1 - 0.0 - - - - - - -
21/06:00am 12.7 NE 8 9 1014.4 - 0.0 - - - - - - -
21/05:30am 12.5 NE 6 7 1014.9 - 0.0 - - - - - - -
21/05:00am 12.6 NE 6 8 1014.9 - 0.0 - - - - - - -
21/04:30am 12.7 NE 7 9 1014.4 - 0.0 - - - - - - -
21/04:00am 12.9 NE 9 11 1013.9 - 0.0 - - - - - - -
21/03:30am 12.9 NE 9 11 1013.9 - 0.0 - - - - - - -
21/03:00am 12.9 NE 10 12 1014.1 - 0.0 - - - - - - -
21/02:30am 12.8 NE 9 11 1014.7 - 0.0 - - - - - - -
21/02:00am 12.7 NE 8 10 1015.1 - 0.0 - - - - - - -
21/01:30am 12.4 NE 6 7 1015.8 - 0.0 - - - - - - -
21/01:00am 12.4 NE 6 7 1016.2 - 0.0 - - - - - - -
21/12:30am 12.7 NE 5 6 1016.8 - 0.0 - - - - - - -
21/12:00am 12.5 NE 4 5 1017.3 - 0.0 - - - - - - -
 
Date/Time
EDT
Temp

°C
Wind Pressure Rain
since 9am
mm
Weather Cloud Vis
km
Sea
Height
m
Swell
Dir
 
Speed
knots
Gust
knots
hPa Trend Height
m
Period
s
Dir
20/11:30pm 11.7 NNE 4 5 1017.6 - 0.0 - - - - - - -
20/11:00pm 11.9 CALM 0 0 1017.8 - 0.0 - - - - - - -
20/10:30pm 12.1 CALM 0 0 1017.9 - 0.0 - - - - - - -
20/10:00pm 12.9 CALM 0 0 1017.9 - 0.0 - - - - - - -
20/09:30pm 13.8 SW 1 4 1017.8 - 0.0 - - - - - - -
20/09:00pm 15.0 SW 4 6 1017.7 - 0.0 - - - - - - -
20/08:30pm 15.7 WSW 4 5 1017.7 - 0.0 - - - - - - -
20/08:00pm 16.4 WSW 6 7 1017.7 - 0.0 - - - - - - -
20/07:30pm 16.1 SW 8 11 1017.7 - 0.0 - - - - - - -
20/07:00pm 16.4 WSW 10 13 1017.6 - 0.0 - - - - - - -
20/06:30pm 17.0 WSW 11 13 1017.5 - 0.0 - - - - - - -
20/06:00pm 17.1 WSW 12 13 1017.3 - 0.0 - - - - - - -
20/05:30pm 17.7 WSW 11 15 1017.7 - 0.0 - - - - - - -
20/05:00pm 18.3 W 10 13 1017.9 - 0.0 - - - - - - -
20/04:30pm 17.7 W 11 14 1018.1 - 0.0 - - - - - - -
20/04:00pm 17.1 W 10 13 1018.3 - 0.0 - - - - - - -
20/03:30pm 17.6 W 11 15 1018.5 - 0.0 - - - - - - -
20/03:00pm 17.5 W 12 15 1018.7 - 0.0 - - - - - - -
20/02:30pm 17.5 W 13 16 1019.0 - 0.0 - - - - - - -
20/02:00pm 16.9 W 11 15 1019.1 - 0.0 - - - - - - -
20/01:30pm 17.5 W 13 17 1019.1 - 0.0 - - - - - - -
20/01:00pm 18.6 W 11 15 1019.2 - 0.0 - - - - - - -
20/12:30pm 18.0 W 15 18 1019.3 - 0.0 - - - - - - -
20/12:00pm 17.0 W 14 18 1019.2 - 0.0 - - - - - - -
20/11:30am 17.3 W 14 18 1019.1 - 0.0 - - - - - - -
20/11:00am 17.2 W 13 19 1019.3 - 0.0 - - - - - - -
20/10:30am 17.7 W 15 21 1019.0 - 0.0 - - - - - - -
20/10:00am 16.4 W 15 19 1019.0 - 0.0 - - - - - - -
20/09:30am 16.4 WNW 11 17 1018.9 - 0.0 - - - - - - -
20/09:00am 15.4 WNW 12 16 1018.7 - 0.0 - - - - - - -
20/08:30am 15.1 WNW 11 16 1018.4 - 0.0 - - - - - - -
20/08:00am 15.3 WNW 12 17 1018.2 - 0.0 - - - - - - -
20/07:30am 14.5 WNW 11 15 1017.8 - 0.0 - - - - - - -
20/07:00am 14.4 WNW 12 16 1017.6 - 0.0 - - - - - - -
20/06:30am 13.9 WNW 12 17 1017.4 - 0.0 - - - - - - -
20/06:00am 14.0 WNW 13 17 1017.1 - 0.0 - - - - - - -
20/05:30am 14.0 WNW 10 15 1017.1 - 0.0 - - - - - - -
20/05:00am 13.9 WNW 11 17 1017.1 - 0.0 - - - - - - -
20/04:30am 14.2 WNW 11 16 1017.1 - 0.0 - - - - - - -
20/04:00am 14.3 WNW 11 17 1017.2 - 0.0 - - - - - - -
20/03:30am 14.4 WNW 12 16 1017.4 - 0.0 - - - - - - -
20/03:00am 14.2 WNW 9 15 1017.5 - 0.0 - - - - - - -
20/02:30am 14.1 WNW 9 15 1018.0 - 0.0 - - - - - - -
20/02:00am 14.2 NW 9 13 1018.2 - 0.0 - - - - - - -
20/01:30am 14.3 NW 10 16 1018.6 - 0.0 - - - - - - -
20/01:00am 14.6 W 11 16 1018.7 - 0.0 - - - - - - -
20/12:30am 14.2 W 11 14 1019.0 - 0.0 - - - - - - -
20/12:00am 14.4 W 12 16 1019.1 - 0.0 - - - - - - -
 
Date/Time
EDT
Temp

°C
Wind Pressure Rain
since 9am
mm
Weather Cloud Vis
km
Sea
Height
m
Swell
Dir
 
Speed
knots
Gust
knots
hPa Trend Height
m
Period
s
Dir
19/11:30pm 14.2 W 11 15 1019.5 - 0.0 - - - - - - -
19/11:00pm 14.3 W 12 15 1019.7 - 0.0 - - - - - - -
19/10:30pm 14.5 W 12 18 1019.8 - 0.0 - - - - - - -
19/10:00pm 14.7 W 13 18 1019.8 - 0.0 - - - - - - -
19/09:30pm 14.6 W 13 17 1019.6 - 0.0 - - - - - - -
19/09:00pm 14.8 W 13 19 1019.6 - 0.0 - - - - - - -
19/08:30pm 14.7 W 13 18 1019.6 - 0.0 - - - - - - -
19/08:00pm 14.7 W 14 19 1019.6 - 0.0 - - - - - - -
19/07:30pm 14.9 W 14 17 1019.3 - 0.0 - - - - - - -
19/07:00pm 15.9 WSW 13 19 1019.1 - 0.0 - - - - - - -
19/06:30pm 16.3 WSW 14 20 1019.0 - 0.0 - - - - - - -
19/06:00pm 16.2 W 15 20 1018.6 - 0.0 - - - - - - -
19/05:30pm 15.7 W 15 21 1018.6 - 0.0 - - - - - - -
19/05:00pm 16.6 W 16 21 1018.5 - 0.0 - - - - - - -
19/04:30pm 16.7 W 13 19 1018.5 - 0.0 - - - - - - -
19/04:00pm 17.0 W 13 17 1018.6 - 0.0 - - - - - - -
19/03:30pm 17.2 W 13 18 1018.5 - 0.0 - - - - - - -
19/03:00pm 16.4 W 12 17 1018.5 - 0.0 - - - - - - -
19/02:30pm 15.8 W 12 18 1018.7 - 0.0 - - - - - - -
19/02:00pm 16.1 W 12 16 1018.6 - 0.0 - - - - - - -
19/01:30pm 16.6 W 12 16 1018.6 - 0.0 - - - - - - -

Other Formats:

Comma delimited format used in spreadsheet applications
http://www.bom.gov.au/fwo/IDT60701/IDT60701.94842.axf

JavaScript Object Notation format (JSON) in row-major order
http://www.bom.gov.au/fwo/IDT60701/IDT60701.94842.json